Startpagina
METAR-TAF:

METAR-TAF

Vliegvelden :

Vannes, Frankrijk

breedte: 47-43-19N, lengte: 2-43-41W, hoogte: 130 m

Actueel weer

Dit bericht is 23 minuten geleden gemaakt, om 22:30 UTC
Wind 9 kt uit het zuidwesten, variërend tussen het zuiden en het westen
Temperatuur 10°C
Vochtigheid 76%
Druk 1022 hPa
Zicht 10 km of meer
Geheel bewolkt op 4000 ft

METAR: LFRV 192230Z AUTO 22009KT 180V260 9999 OVC040 10/06 Q1022

Tijdstip: 23:53 (22:53 UTC)


TAF: ontbreekt

Waarnemingen en weersverwachtingen van meer dan 4000 vliegvelden (METAR en TAF).

De beschikbare stations zijn de gele en rode punten op de kaart.

Ga met uw muis naar het station om de naam te zien.

Klik dan om waarnemingen en weersverwachtingen te zien.

kaart wijzigen: klik op de groene knoppen met een zwart kruis om in te zoomen, op de groene knop met een streepje om uit te zoomen of op de groene pijlen voor aangrenzende kaarten.


METAR-TAF: